Time;durP1;ratioP1;P1;durP2;ratioP2;P2;SDS_P1;SDS_P2;PMS_P1;PMS_P2;Temp;Humidity;BMP_temperature;BMP_pressure;BME280_temperature;BME280_humidity;BME280_pressure;Samples;Min_cycle;Max_cycle;Signal;HPM_P1;HPM_P2
2021/12/19 00:02:37;;;;;;;61.53;14.88;;;5.80;95.20;;;;;;6154177;23;20022;-80
2021/12/19 00:10:36;;;;;;;81.78;15.90;;;5.80;95.20;;;;;;6151990;23;20054;-79
2021/12/19 00:13:03;;;;;;;65.22;15.50;;;5.80;95.20;;;;;;6154741;23;20037;-79
2021/12/19 00:15:29;;;;;;;62.53;14.90;;;5.80;95.20;;;;;;6152703;23;20480;-80
2021/12/19 00:17:56;;;;;;;62.40;15.63;;;5.80;95.30;;;;;;6154330;23;20423;-79
2021/12/19 00:20:23;;;;;;;101.18;16.17;;;5.90;95.20;;;;;;6153054;23;20405;-79
2021/12/19 00:23:10;;;;;;;88.80;16.13;;;5.80;95.10;;;;;;6155209;23;20030;-77
2021/12/19 00:25:37;;;;;;;61.35;13.35;;;5.90;95.20;;;;;;6130901;23;20032;-77
2021/12/19 00:28:05;;;;;;;84.15;15.55;;;5.90;95.20;;;;;;6130861;23;20029;-77
2021/12/19 00:30:32;;;;;;;54.08;13.70;;;5.90;95.20;;;;;;6139491;23;20480;-77
2021/12/19 00:32:59;;;;;;;70.60;14.77;;;5.90;95.20;;;;;;6156822;23;20298;-76
2021/12/19 00:35:27;;;;;;;55.72;15.45;;;5.90;95.10;;;;;;6155162;23;20026;-77
2021/12/19 00:37:54;;;;;;;62.03;14.88;;;5.90;95.20;;;;;;6154158;23;20117;-77
2021/12/19 00:40:21;;;;;;;66.50;14.82;;;5.90;95.10;;;;;;6151591;23;20081;-78
2021/12/19 00:42:52;;;;;;;55.08;14.95;;;5.90;95.20;;;;;;6156935;23;20022;-77
2021/12/19 00:45:30;;;;;;;60.42;13.60;;;5.90;95.20;;;;;;6157938;23;20049;-78
2021/12/19 00:48:01;;;;;;;102.35;16.17;;;5.90;95.20;;;;;;6158379;23;20038;-77
2021/12/19 00:50:29;;;;;;;62.40;14.23;;;5.90;95.20;;;;;;6156745;23;20816;-77
2021/12/19 00:53:03;;;;;;;66.15;14.63;;;5.90;95.40;;;;;;6156630;23;20033;-77
2021/12/19 00:55:30;;;;;;;80.95;14.38;;;5.90;95.40;;;;;;6157360;23;20778;-77
2021/12/19 00:57:57;;;;;;;60.97;13.90;;;5.90;95.40;;;;;;6157286;23;20085;-77
2021/12/19 01:00:29;;;;;;;68.70;13.77;;;5.90;95.40;;;;;;6156311;23;20026;-76
2021/12/19 01:03:00;;;;;;;71.03;13.63;;;5.90;95.50;;;;;;6153238;23;20554;-78
2021/12/19 01:05:29;;;;;;;58.08;12.80;;;5.90;95.40;;;;;;6152436;23;20041;-77
2021/12/19 01:08:00;;;;;;;62.33;13.25;;;5.90;95.50;;;;;;6154487;23;20038;-78
2021/12/19 01:10:27;;;;;;;47.67;12.68;;;5.90;95.50;;;;;;6151752;23;20077;-78
2021/12/19 01:12:54;;;;;;;50.47;12.85;;;5.90;95.40;;;;;;6153415;23;20080;-78
2021/12/19 01:15:22;;;;;;;47.60;11.90;;;5.90;95.50;;;;;;6153714;23;20101;-77
2021/12/19 01:17:50;;;;;;;55.42;12.55;;;5.90;95.40;;;;;;6150175;23;20026;-77
2021/12/19 01:20:20;;;;;;;49.53;12.07;;;6.00;95.40;;;;;;6153826;23;20022;-78
2021/12/19 01:22:48;;;;;;;51.53;12.43;;;6.00;95.40;;;;;;6153543;23;20033;-77
2021/12/19 01:25:15;;;;;;;46.35;11.48;;;5.90;95.50;;;;;;6151784;23;20018;-78
2021/12/19 01:27:42;;;;;;;54.25;11.85;;;5.90;95.50;;;;;;6153707;23;20028;-77
2021/12/19 01:30:10;;;;;;;46.08;11.85;;;5.90;95.70;;;;;;6153259;23;20474;-77
2021/12/19 01:32:38;;;;;;;68.97;13.60;;;5.90;95.70;;;;;;6153134;23;20029;-78
2021/12/19 01:35:08;;;;;;;50.70;11.65;;;5.90;95.60;;;;;;6127417;23;20480;-77
2021/12/19 01:37:38;;;;;;;62.88;12.93;;;5.90;95.60;;;;;;6153280;23;20036;-81
2021/12/19 01:40:09;;;;;;;49.45;11.57;;;5.90;95.60;;;;;;6154620;23;20374;-80
2021/12/19 01:42:38;;;;;;;58.63;12.30;;;5.90;95.60;;;;;;6152560;23;20018;-79
2021/12/19 01:45:08;;;;;;;69.95;13.07;;;5.90;95.60;;;;;;6128823;23;20789;-77
2021/12/19 01:47:35;;;;;;;70.47;11.90;;;6.00;95.70;;;;;;6156667;23;20036;-76
2021/12/19 01:50:04;;;;;;;80.10;13.48;;;5.90;95.70;;;;;;6156999;23;20022;-77
2021/12/19 01:52:31;;;;;;;76.35;14.05;;;5.90;95.70;;;;;;6157064;23;20032;-76
2021/12/19 01:55:01;;;;;;;61.33;13.60;;;5.90;95.70;;;;;;6157508;23;20113;-76
2021/12/19 01:57:30;;;;;;;86.03;14.75;;;6.00;95.70;;;;;;6156788;23;20046;-79
2021/12/19 01:59:57;;;;;;;59.20;13.75;;;6.00;95.70;;;;;;6157137;23;20458;-76
2021/12/19 02:02:25;;;;;;;59.90;13.30;;;6.00;95.70;;;;;;6156699;23;20833;-77
2021/12/19 02:04:52;;;;;;;71.13;14.23;;;6.00;95.70;;;;;;6157226;23;20853;-76
2021/12/19 02:07:19;;;;;;;65.60;14.55;;;6.00;95.80;;;;;;6156902;23;20026;-77
2021/12/19 02:09:45;;;;;;;86.05;14.75;;;6.00;95.70;;;;;;6156743;23;20057;-76
2021/12/19 02:12:15;;;;;;;69.97;14.30;;;6.00;95.70;;;;;;6156032;23;20061;-78
2021/12/19 02:14:43;;;;;;;88.90;15.27;;;6.00;95.80;;;;;;6130383;23;20024;-77
2021/12/19 02:17:10;;;;;;;138.10;16.55;;;6.00;95.80;;;;;;6157357;23;20028;-77
2021/12/19 02:19:37;;;;;;;84.45;14.93;;;6.00;95.80;;;;;;6155814;23;20022;-77
2021/12/19 02:22:03;;;;;;;79.30;14.98;;;6.00;95.80;;;;;;6157148;23;20022;-78
2021/12/19 02:24:31;;;;;;;95.68;16.73;;;6.00;95.80;;;;;;6154801;23;20030;-78
2021/12/19 02:27:00;;;;;;;88.07;16.35;;;6.00;95.80;;;;;;6129956;23;21015;-78
2021/12/19 02:29:26;;;;;;;93.55;17.10;;;6.00;95.80;;;;;;6156973;23;20105;-78
2021/12/19 02:31:53;;;;;;;84.10;15.80;;;6.10;95.80;;;;;;6156901;23;20026;-78
2021/12/19 02:34:24;;;;;;;96.43;16.73;;;6.10;95.70;;;;;;6157287;23;20022;-78
2021/12/19 02:37:04;;;;;;;136.52;17.60;;;6.10;95.70;;;;;;6157094;23;20124;-79
2021/12/19 02:48:14;;;;;;;76.75;16.30;;;6.10;95.90;;;;;;6031591;23;20115;-79
2021/12/19 02:50:47;;;;;;;69.28;16.23;;;6.10;95.90;;;;;;6032894;23;20028;-78
2021/12/19 02:53:25;;;;;;;73.22;16.25;;;6.10;95.90;;;;;;6033153;23;20032;-78
2021/12/19 02:55:52;;;;;;;80.70;16.23;;;6.10;96.00;;;;;;6009274;23;20088;-78
2021/12/19 02:58:19;;;;;;;68.13;16.35;;;6.10;95.90;;;;;;6032814;23;20028;-77
2021/12/19 03:00:48;;;;;;;53.00;14.32;;;6.10;96.00;;;;;;6032372;23;20030;-78
2021/12/19 03:03:15;;;;;;;54.78;14.27;;;6.10;95.90;;;;;;6030380;23;20535;-78
2021/12/19 03:05:42;;;;;;;51.85;14.40;;;6.10;95.90;;;;;;6029818;23;20024;-78
2021/12/19 03:08:10;;;;;;;60.83;15.25;;;6.10;95.90;;;;;;6032892;23;20061;-77
2021/12/19 03:17:56;;;;;;;47.50;12.30;;;6.10;96.00;;;;;;6032314;23;20020;-78
2021/12/19 03:19:06;;;;;;;42.15;11.40;;;6.20;95.90;;;;;;6153898;23;20041;-78
2021/12/19 03:21:32;;;;;;;67.88;13.68;;;6.20;95.90;;;;;;6156539;23;20028;-78
2021/12/19 03:23:59;;;;;;;46.25;12.80;;;6.20;95.90;;;;;;6157359;23;20109;-78
2021/12/19 03:26:27;;;;;;;41.80;11.52;;;6.20;95.90;;;;;;6158220;23;20916;-77
2021/12/19 03:28:53;;;;;;;44.53;12.15;;;6.20;96.00;;;;;;6156477;23;20028;-78
2021/12/19 03:31:20;;;;;;;52.75;11.02;;;6.20;96.00;;;;;;6156887;23;20504;-78
2021/12/19 03:33:49;;;;;;;34.92;9.32;;;6.20;96.00;;;;;;6156475;23;20018;-78
2021/12/19 03:36:21;;;;;;;35.47;10.30;;;6.20;95.90;;;;;;6157567;23;20055;-78
2021/12/19 03:38:56;;;;;;;35.28;9.50;;;6.20;96.00;;;;;;6158127;23;20703;-78
2021/12/19 03:41:33;;;;;;;44.70;8.93;;;6.20;96.00;;;;;;6131505;23;20094;-77
2021/12/19 03:44:04;;;;;;;29.88;8.48;;;6.20;96.00;;;;;;6158047;23;20054;-78
2021/12/19 03:46:32;;;;;;;36.80;8.13;;;6.20;96.00;;;;;;6132074;23;20877;-78
2021/12/19 03:48:59;;;;;;;32.50;8.50;;;6.20;96.10;;;;;;6158240;23;20061;-78
2021/12/19 03:51:25;;;;;;;40.38;8.98;;;6.20;96.10;;;;;;6158128;23;20112;-78
2021/12/19 03:53:52;;;;;;;31.85;7.63;;;6.20;96.10;;;;;;6157086;23;20045;-78
2021/12/19 03:56:19;;;;;;;44.80;8.48;;;6.30;96.00;;;;;;6152899;23;20029;-77
2021/12/19 03:58:46;;;;;;;31.55;7.97;;;6.20;96.00;;;;;;6153389;23;20152;-78
2021/12/19 04:01:13;;;;;;;32.05;7.55;;;6.20;96.10;;;;;;6153657;23;20849;-79
2021/12/19 04:03:40;;;;;;;39.25;8.07;;;6.30;96.10;;;;;;6154035;23;20049;-79
2021/12/19 04:06:08;;;;;;;35.60;7.85;;;6.20;96.10;;;;;;6153502;23;20026;-77
2021/12/19 04:08:34;;;;;;;43.38;8.55;;;6.30;96.10;;;;;;6153344;23;20036;-78
2021/12/19 04:11:01;;;;;;;33.70;8.70;;;6.30;96.10;;;;;;6153565;23;20029;-78
2021/12/19 04:13:28;;;;;;;29.27;7.97;;;6.30;96.20;;;;;;6127826;23;20018;-78
2021/12/19 04:15:54;;;;;;;36.88;8.18;;;6.30;96.20;;;;;;6127472;23;20026;-78
2021/12/19 04:18:21;;;;;;;37.05;8.40;;;6.30;96.20;;;;;;6127320;23;20510;-78
2021/12/19 04:20:51;;;;;;;35.15;7.60;;;6.30;96.10;;;;;;6126880;23;20026;-77
2021/12/19 04:23:21;;;;;;;35.53;8.15;;;6.30;96.10;;;;;;6153169;23;20032;-78
2021/12/19 04:25:52;;;;;;;39.47;7.85;;;6.40;96.20;;;;;;6127685;23;20021;-78
2021/12/19 04:28:19;;;;;;;36.38;8.90;;;6.40;96.20;;;;;;6125785;23;20022;-78
2021/12/19 04:30:46;;;;;;;39.63;8.43;;;6.40;96.20;;;;;;6154320;23;20028;-78
2021/12/19 04:33:13;;;;;;;31.88;8.38;;;6.40;96.20;;;;;;6155725;23;20018;-78
2021/12/19 04:35:43;;;;;;;35.17;8.00;;;6.40;96.30;;;;;;6156948;23;20026;-78
2021/12/19 05:05:15;;;;;;;61.53;10.73;;;6.60;96.40;;;;;;6153741;23;20802;-78
2021/12/19 05:15:52;;;;;;;57.30;11.43;;;6.60;96.40;;;;;;6153499;23;20033;-77
2021/12/19 05:18:26;;;;;;;59.13;13.43;;;6.60;96.40;;;;;;6153429;23;20022;-80
2021/12/19 05:21:13;;;;;;;68.20;13.95;;;6.60;96.40;;;;;;6152794;23;20802;-78
2021/12/19 05:26:14;;;;;;;76.03;14.43;;;6.70;96.40;;;;;;6152910;23;20550;-78
2021/12/19 05:28:41;;;;;;;67.10;13.88;;;6.70;96.50;;;;;;6151948;23;20093;-78
2021/12/19 05:31:08;;;;;;;60.03;12.82;;;6.70;96.50;;;;;;6153387;23;20676;-78
2021/12/19 05:33:35;;;;;;;59.78;14.35;;;6.70;96.50;;;;;;6153007;23;20093;-79
2021/12/19 05:44:10;;;;;;;48.15;12.45;;;6.70;96.60;;;;;;6152814;23;20316;-78
2021/12/19 05:47:09;;;;;;;24.23;8.85;;;6.70;96.50;;;;;;6153349;23;20692;-77
2021/12/19 05:49:36;;;;;;;20.90;6.97;;;6.70;96.40;;;;;;6151849;23;20022;-79
2021/12/19 05:52:03;;;;;;;14.18;5.22;;;6.70;96.20;;;;;;6153209;23;20026;-77
2021/12/19 05:54:33;;;;;;;15.63;5.07;;;6.70;96.10;;;;;;6127473;23;20481;-78
2021/12/19 05:57:02;;;;;;;10.43;3.72;;;6.70;95.90;;;;;;6153271;23;20091;-78
2021/12/19 05:59:29;;;;;;;12.10;3.50;;;6.70;95.80;;;;;;6153742;23;20022;-81
2021/12/19 06:01:56;;;;;;;11.18;3.25;;;6.60;95.70;;;;;;6154384;23;20109;-77
2021/12/19 06:04:22;;;;;;;10.63;3.92;;;6.70;95.70;;;;;;6151154;23;20761;-78
2021/12/19 06:06:51;;;;;;;15.15;4.32;;;6.60;95.80;;;;;;6153408;23;20030;-78
2021/12/19 06:09:22;;;;;;;11.55;3.67;;;6.60;95.80;;;;;;6154070;23;20105;-79
2021/12/19 06:11:49;;;;;;;13.38;3.97;;;6.60;95.90;;;;;;6153181;23;20037;-79
2021/12/19 06:14:15;;;;;;;8.30;2.70;;;6.60;95.90;;;;;;6153072;23;20447;-78
2021/12/19 06:16:42;;;;;;;8.45;2.85;;;6.60;95.90;;;;;;6153241;23;20101;-78
2021/12/19 06:19:08;;;;;;;5.38;1.95;;;6.60;95.80;;;;;;6153161;23;20498;-79
2021/12/19 06:21:35;;;;;;;7.15;2.15;;;6.60;95.60;;;;;;6151253;23;20022;-77
2021/12/19 06:24:02;;;;;;;9.77;2.05;;;6.50;95.30;;;;;;6126374;23;20772;-77
2021/12/19 06:26:30;;;;;;;10.05;2.03;;;6.50;95.40;;;;;;6152861;23;20026;-78
2021/12/19 06:28:56;;;;;;;8.85;2.45;;;6.50;95.50;;;;;;6152158;23;20550;-77
2021/12/19 06:31:23;;;;;;;5.20;2.13;;;6.50;95.50;;;;;;6150376;23;20251;-77
2021/12/19 06:33:50;;;;;;;6.68;2.10;;;6.50;95.50;;;;;;6153004;23;20049;-79
2021/12/19 06:36:17;;;;;;;10.35;2.15;;;6.50;95.50;;;;;;6152869;23;20018;-78
2021/12/19 06:38:46;;;;;;;6.07;2.00;;;6.40;95.50;;;;;;6153001;23;20462;-79
2021/12/19 06:41:12;;;;;;;6.13;2.20;;;6.40;95.50;;;;;;6153409;23;20036;-77
2021/12/19 06:43:39;;;;;;;7.43;2.22;;;6.40;95.60;;;;;;6152465;23;20484;-77
2021/12/19 06:46:06;;;;;;;5.43;2.20;;;6.40;95.50;;;;;;6152504;23;20036;-78
2021/12/19 06:48:33;;;;;;;8.45;2.10;;;6.40;95.40;;;;;;6152783;23;20098;-78
2021/12/19 06:51:00;;;;;;;5.20;1.77;;;6.40;95.30;;;;;;6152339;23;20025;-79
2021/12/19 06:53:26;;;;;;;4.47;1.52;;;6.30;95.20;;;;;;6152272;23;20028;-78
2021/12/19 06:55:53;;;;;;;6.13;1.90;;;6.30;95.10;;;;;;6152318;23;20604;-77
2021/12/19 06:58:20;;;;;;;4.97;1.38;;;6.30;95.10;;;;;;6152410;23;20849;-79
2021/12/19 07:00:52;;;;;;;3.78;1.30;;;6.30;95.10;;;;;;6128098;23;20041;-77
2021/12/19 07:03:23;;;;;;;4.03;1.60;;;6.20;94.80;;;;;;6153908;23;20026;-77
2021/12/19 07:05:51;;;;;;;4.28;1.52;;;6.20;94.70;;;;;;6153622;23;20737;-78
2021/12/19 07:08:21;;;;;;;2.15;1.10;;;6.20;94.80;;;;;;6153588;23;20101;-78
2021/12/19 07:10:51;;;;;;;4.22;1.30;;;6.20;94.50;;;;;;6154433;23;20034;-78
2021/12/19 07:13:21;;;;;;;3.88;1.20;;;6.20;94.50;;;;;;6153888;23;20026;-78
2021/12/19 07:15:50;;;;;;;5.03;1.20;;;6.10;94.60;;;;;;6127465;23;20037;-78
2021/12/19 07:18:17;;;;;;;2.47;1.20;;;6.10;94.40;;;;;;6153301;23;20021;-78
2021/12/19 07:20:46;;;;;;;6.90;1.45;;;6.10;94.50;;;;;;6153278;23;20030;-78
2021/12/19 07:23:15;;;;;;;5.28;1.70;;;6.10;94.70;;;;;;6154763;23;20022;-78
2021/12/19 07:25:42;;;;;;;5.00;1.70;;;6.10;94.80;;;;;;6127471;23;20116;-78
2021/12/19 07:28:10;;;;;;;3.78;1.60;;;6.10;95.00;;;;;;6153647;23;20867;-79
2021/12/19 07:30:38;;;;;;;7.05;1.77;;;6.10;95.10;;;;;;6153435;23;21084;-77
2021/12/19 07:33:06;;;;;;;6.57;1.70;;;6.10;95.20;;;;;;6154153;23;20022;-78
2021/12/19 07:35:37;;;;;;;9.70;2.08;;;6.10;95.20;;;;;;6154030;23;20113;-78
2021/12/19 07:38:05;;;;;;;4.97;1.70;;;6.10;95.30;;;;;;6154061;23;20026;-79
2021/12/19 07:40:36;;;;;;;4.85;1.83;;;6.10;95.40;;;;;;6153932;23;20120;-77
2021/12/19 07:43:04;;;;;;;11.40;1.83;;;6.10;95.40;;;;;;6154081;23;20442;-77
2021/12/19 07:45:33;;;;;;;6.95;1.83;;;6.10;95.40;;;;;;6153651;23;20467;-77
2021/12/19 07:48:00;;;;;;;3.78;1.42;;;6.10;95.50;;;;;;6153185;23;20057;-78
2021/12/19 07:50:28;;;;;;;7.38;1.63;;;6.10;95.60;;;;;;6154202;23;20080;-78
2021/12/19 07:52:55;;;;;;;6.10;1.83;;;6.10;95.60;;;;;;6155054;23;20022;-78
2021/12/19 07:55:23;;;;;;;7.78;1.85;;;6.10;95.70;;;;;;6153564;23;20049;-78
2021/12/19 07:57:50;;;;;;;5.18;1.77;;;6.10;95.70;;;;;;6153420;23;20485;-78
2021/12/19 08:00:19;;;;;;;7.40;1.80;;;6.10;95.70;;;;;;6154393;23;20500;-78
2021/12/19 08:02:47;;;;;;;6.22;1.90;;;6.20;95.80;;;;;;6127674;23;20097;-78
2021/12/19 08:05:27;;;;;;;3.75;1.40;;;6.10;95.80;;;;;;6152038;23;20021;-76
2021/12/19 08:07:59;;;;;;;5.88;1.75;;;6.20;95.90;;;;;;6153629;23;20033;-77
2021/12/19 08:13:05;;;;;;;3.80;1.52;;;6.20;95.90;;;;;;6154583;23;20022;-77
2021/12/19 08:15:37;;;;;;;5.05;1.55;;;6.20;95.80;;;;;;6154755;23;20780;-77
2021/12/19 08:18:08;;;;;;;5.95;1.80;;;6.20;95.70;;;;;;6153182;23;20030;-77
2021/12/19 08:20:35;;;;;;;5.65;1.73;;;6.20;95.70;;;;;;6152959;23;20026;-77
2021/12/19 08:23:04;;;;;;;5.38;1.70;;;6.20;95.60;;;;;;6154604;23;20021;-78
2021/12/19 08:25:31;;;;;;;3.88;1.60;;;6.20;95.40;;;;;;6125852;23;20367;-78
2021/12/19 08:28:01;;;;;;;6.38;2.03;;;6.10;95.20;;;;;;6154649;23;20085;-78
2021/12/19 08:30:29;;;;;;;4.90;1.60;;;6.10;95.10;;;;;;6153279;23;20798;-77
2021/12/19 08:33:01;;;;;;;2.13;1.40;;;6.20;95.20;;;;;;6126267;23;20097;-78
2021/12/19 08:35:33;;;;;;;2.58;1.13;;;6.10;95.00;;;;;;6154386;23;20022;-81
2021/12/19 08:38:00;;;;;;;4.38;1.70;;;6.20;94.90;;;;;;6153888;23;20781;-77
2021/12/19 08:40:28;;;;;;;3.83;1.70;;;6.20;95.00;;;;;;6152543;23;20022;-78
2021/12/19 08:42:58;;;;;;;3.95;1.42;;;6.20;95.10;;;;;;6128213;23;20522;-77
2021/12/19 08:45:29;;;;;;;2.88;1.20;;;6.20;95.20;;;;;;6154530;23;20032;-77
2021/12/19 08:47:55;;;;;;;4.70;1.40;;;6.20;95.10;;;;;;6152681;23;20026;-78
2021/12/19 08:50:23;;;;;;;4.70;1.42;;;6.20;95.00;;;;;;6154396;23;20026;-78
2021/12/19 08:52:52;;;;;;;3.03;1.70;;;6.20;95.00;;;;;;6153691;23;20022;-78
2021/12/19 08:55:20;;;;;;;2.72;1.52;;;6.30;95.00;;;;;;6154143;23;20025;-77
2021/12/19 08:57:47;;;;;;;3.55;1.80;;;6.30;94.60;;;;;;6155384;23;20102;-78
2021/12/19 09:00:18;;;;;;;5.30;1.80;;;6.30;94.80;;;;;;6130889;23;20030;-79
2021/12/19 09:02:47;;;;;;;4.13;1.45;;;6.30;94.90;;;;;;6130402;23;20865;-78
2021/12/19 09:05:26;;;;;;;2.92;1.25;;;6.40;94.90;;;;;;6129107;23;20136;-79
2021/12/19 09:07:53;;;;;;;3.55;1.60;;;6.40;95.00;;;;;;6128479;23;20060;-79
2021/12/19 09:10:20;;;;;;;5.50;1.40;;;6.40;94.80;;;;;;6154737;23;20105;-79
2021/12/19 09:12:48;;;;;;;3.80;1.38;;;6.40;94.80;;;;;;6155107;23;20542;-80
2021/12/19 09:15:15;;;;;;;5.82;2.03;;;6.40;94.80;;;;;;6154749;23;20453;-80
2021/12/19 09:17:42;;;;;;;3.35;1.40;;;6.40;94.70;;;;;;6151809;23;20088;-78
2021/12/19 09:20:10;;;;;;;3.30;1.15;;;6.40;94.60;;;;;;6153339;23;20049;-78
2021/12/19 09:22:37;;;;;;;3.25;1.27;;;6.40;94.40;;;;;;6155115;23;20022;-79
2021/12/19 09:25:17;;;;;;;4.65;1.48;;;6.40;94.40;;;;;;6154679;23;20033;-78
2021/12/19 09:27:47;;;;;;;5.20;1.50;;;6.40;94.30;;;;;;6128463;23;20454;-79
2021/12/19 09:30:17;;;;;;;6.28;1.80;;;6.40;94.40;;;;;;6154008;23;20281;-79
2021/12/19 09:32:52;;;;;;;6.45;1.80;;;6.40;94.40;;;;;;6150910;23;20673;-79
2021/12/19 09:35:22;;;;;;;5.00;1.55;;;6.50;94.60;;;;;;6153091;23;20054;-78
2021/12/19 09:37:48;;;;;;;6.85;1.90;;;6.50;94.30;;;;;;6128747;23;20073;-79
2021/12/19 09:40:20;;;;;;;3.30;1.45;;;6.50;94.40;;;;;;6154002;23;20057;-78
2021/12/19 09:42:51;;;;;;;5.68;1.60;;;6.60;94.40;;;;;;6151915;23;20077;-79
2021/12/19 09:45:20;;;;;;;4.03;1.92;;;6.50;94.10;;;;;;6128980;23;20038;-79
2021/12/19 09:47:49;;;;;;;2.47;1.38;;;6.60;94.10;;;;;;6153433;23;20038;-80
2021/12/19 09:50:16;;;;;;;3.35;1.42;;;6.60;94.20;;;;;;6127909;23;20429;-79
2021/12/19 09:52:44;;;;;;;4.85;1.60;;;6.60;94.10;;;;;;6154144;23;20025;-78
2021/12/19 09:55:19;;;;;;;6.00;2.17;;;6.60;94.10;;;;;;6153615;23;20030;-79
2021/12/19 09:57:53;;;;;;;7.57;2.60;;;6.60;93.50;;;;;;6126843;23;20557;-79
2021/12/19 10:00:21;;;;;;;6.13;2.33;;;6.60;93.60;;;;;;6153283;23;20101;-79
2021/12/19 10:02:51;;;;;;;5.50;2.22;;;6.60;93.80;;;;;;6152798;23;20024;-79
2021/12/19 10:05:24;;;;;;;7.53;2.58;;;6.60;93.90;;;;;;6153471;23;20014;-79
2021/12/19 10:07:58;;;;;;;6.05;2.33;;;6.60;93.80;;;;;;6155776;23;20105;-78
2021/12/19 10:10:41;;;;;;;10.40;2.95;;;6.60;93.90;;;;;;6152333;23;20030;-78
2021/12/19 10:13:12;;;;;;;11.48;3.00;;;6.60;93.70;;;;;;6152872;23;20458;-79
2021/12/19 10:15:42;;;;;;;12.95;3.15;;;6.60;93.60;;;;;;6153236;23;20349;-79
2021/12/19 10:18:15;;;;;;;12.15;3.75;;;6.60;93.40;;;;;;6154444;23;20030;-79
2021/12/19 10:21:00;;;;;;;11.32;3.85;;;6.60;93.40;;;;;;6151616;23;20030;-79
2021/12/19 10:23:30;;;;;;;13.68;4.13;;;6.60;93.50;;;;;;6154033;23;20026;-80
2021/12/19 10:26:00;;;;;;;15.95;3.63;;;6.60;93.30;;;;;;6153279;23;20068;-78
2021/12/19 10:28:47;;;;;;;9.18;3.97;;;6.60;92.70;;;;;;6154021;23;20590;-79
2021/12/19 10:31:32;;;;;;;;;;;6.60;92.50;;;;;;6154527;23;20105;-78
2021/12/19 10:34:22;;;;;;;9.73;3.58;;;6.60;92.20;;;;;;6153817;23;19920;-79
2021/12/19 10:36:56;;;;;;;10.65;4.22;;;6.60;92.50;;;;;;6153530;23;20022;-79
2021/12/19 10:39:24;;;;;;;21.08;4.18;;;6.60;92.70;;;;;;6128476;23;20032;-79
2021/12/19 10:41:59;;;;;;;16.63;3.78;;;6.60;92.70;;;;;;6153612;23;20026;-79
2021/12/19 10:47:28;;;;;;;10.70;3.72;;;6.60;93.10;;;;;;6158187;23;20022;-79
2021/12/19 10:49:55;;;;;;;13.80;3.40;;;6.60;92.50;;;;;;6132739;23;20128;-78
2021/12/19 10:52:35;;;;;;;11.93;4.03;;;6.60;92.90;;;;;;6132014;23;20112;-79
2021/12/19 10:55:06;;;;;;;18.65;4.00;;;6.70;92.90;;;;;;6158390;23;20025;-79
2021/12/19 10:57:41;;;;;;;9.45;3.60;;;6.70;93.00;;;;;;6131492;23;20455;-79
2021/12/19 11:00:24;;;;;;;12.23;3.67;;;6.70;92.70;;;;;;6158916;23;20820;-79
2021/12/19 11:02:52;;;;;;;13.80;4.22;;;6.70;92.90;;;;;;6156549;23;20745;-79
2021/12/19 11:05:39;;;;;;;10.15;3.97;;;6.70;92.90;;;;;;6128626;23;20026;-79
2021/12/19 11:08:19;;;;;;;14.18;4.18;;;6.80;93.00;;;;;;6152452;23;20029;-79
2021/12/19 11:10:49;;;;;;;13.50;3.88;;;6.80;92.80;;;;;;6154200;23;20061;-78
2021/12/19 11:13:35;;;;;;;14.25;4.00;;;6.80;92.60;;;;;;6154814;23;20536;-79
2021/12/19 11:16:02;;;;;;;11.23;3.67;;;6.80;92.50;;;;;;6128948;23;20105;-79
2021/12/19 11:18:32;;;;;;;12.40;3.90;;;6.80;92.60;;;;;;6154709;23;20030;-79
2021/12/19 11:20:58;;;;;;;8.88;3.10;;;6.80;92.60;;;;;;6128649;23;20037;-79
2021/12/19 11:23:28;;;;;;;13.98;3.78;;;6.80;92.80;;;;;;6154662;23;20081;-78
2021/12/19 11:26:03;;;;;;;11.50;3.92;;;6.80;93.00;;;;;;6154177;23;20026;-79
2021/12/19 11:28:35;;;;;;;13.65;3.65;;;6.80;92.90;;;;;;6151153;23;20018;-79
2021/12/19 11:31:02;;;;;;;11.98;4.63;;;6.80;93.10;;;;;;6147253;23;20030;-79
2021/12/19 11:33:34;;;;;;;13.80;4.20;;;6.80;93.20;;;;;;6128316;23;20030;-79
2021/12/19 11:36:15;;;;;;;17.02;4.85;;;6.80;93.20;;;;;;6153340;23;20014;-78
2021/12/19 11:38:45;;;;;;;18.67;5.10;;;6.90;93.30;;;;;;6153701;23;20017;-78
2021/12/19 11:41:28;;;;;;;12.20;4.30;;;6.90;93.40;;;;;;6154815;23;20026;-78
2021/12/19 11:43:58;;;;;;;15.32;4.70;;;6.90;93.10;;;;;;6155519;23;20057;-78
2021/12/19 11:46:53;;;;;;;16.25;4.63;;;6.90;92.90;;;;;;6154312;23;20025;-80
2021/12/19 11:49:24;;;;;;;14.07;4.30;;;6.90;92.50;;;;;;6154687;23;20026;-79
2021/12/19 11:52:23;;;;;;;17.55;4.10;;;6.90;92.70;;;;;;6155577;23;20026;-78
2021/12/19 11:55:22;;;;;;;13.85;4.20;;;6.90;92.40;;;;;;6129649;23;20741;-78
2021/12/19 11:58:07;;;;;;;13.65;4.80;;;6.80;92.00;;;;;;6152948;23;20026;-78
2021/12/19 12:00:52;;;;;;;12.63;4.28;;;6.80;92.30;;;;;;6127246;23;20442;-79
2021/12/19 12:03:21;;;;;;;15.85;3.92;;;6.80;91.90;;;;;;6155584;23;20471;-78
2021/12/19 12:06:15;;;;;;;16.33;4.38;;;6.80;92.10;;;;;;6127696;23;20032;-79
2021/12/19 12:09:08;;;;;;;19.10;4.25;;;6.80;92.20;;;;;;6142258;23;20026;-78
2021/12/19 12:12:06;;;;;;;18.17;4.68;;;6.80;92.30;;;;;;6155005;23;20022;-79
2021/12/19 12:14:57;;;;;;;17.42;4.50;;;6.70;92.10;;;;;;6153625;23;20036;-79
2021/12/19 12:17:32;;;;;;;15.63;4.60;;;6.80;92.30;;;;;;6128532;23;20100;-79
2021/12/19 12:20:08;;;;;;;13.02;4.57;;;6.80;92.20;;;;;;6127623;23;20026;-79
2021/12/19 12:22:43;;;;;;;18.00;4.50;;;6.80;92.40;;;;;;6154136;23;20546;-79
2021/12/19 12:25:23;;;;;;;16.15;4.55;;;6.80;92.30;;;;;;6155226;23;20858;-78
2021/12/19 12:27:55;;;;;;;10.95;4.00;;;6.80;92.60;;;;;;6155058;23;20088;-79
2021/12/19 12:30:31;;;;;;;16.85;3.78;;;6.80;92.50;;;;;;6154788;23;20022;-79
2021/12/19 12:33:02;;;;;;;10.43;3.60;;;6.80;92.50;;;;;;6151826;23;20026;-79
2021/12/19 12:35:36;;;;;;;9.10;3.35;;;6.80;92.50;;;;;;6154119;23;20116;-80
2021/12/19 12:38:13;;;;;;;14.73;3.75;;;6.80;92.60;;;;;;6154957;23;20037;-79
2021/12/19 12:40:55;;;;;;;13.43;3.50;;;6.80;92.50;;;;;;6155246;23;20022;-79
2021/12/19 12:43:33;;;;;;;8.48;3.08;;;6.90;92.70;;;;;;6153516;23;20042;-80
2021/12/19 12:46:19;;;;;;;7.90;2.83;;;6.80;92.70;;;;;;6153534;23;20058;-79
2021/12/19 12:48:57;;;;;;;6.57;2.83;;;6.90;92.70;;;;;;6153290;23;20030;-78
2021/12/19 12:51:32;;;;;;;13.98;3.53;;;6.90;92.60;;;;;;6153031;23;20022;-79
2021/12/19 12:54:14;;;;;;;13.88;2.67;;;6.80;92.50;;;;;;6126953;23;20037;-80
2021/12/19 12:56:47;;;;;;;10.77;2.97;;;6.90;92.70;;;;;;6154191;23;20029;-80
2021/12/19 12:59:27;;;;;;;8.05;2.88;;;6.90;92.60;;;;;;6124935;23;20030;-78
2021/12/19 13:02:08;;;;;;;12.55;2.67;;;6.90;92.60;;;;;;6126360;23;20104;-79
2021/12/19 13:04:48;;;;;;;14.75;3.10;;;6.90;92.30;;;;;;6153708;23;20052;-79
2021/12/19 13:07:29;;;;;;;17.13;2.78;;;6.90;92.50;;;;;;6130071;23;20022;-81
2021/12/19 13:10:00;;;;;;;14.15;3.40;;;6.90;92.60;;;;;;6130768;23;20034;-80
2021/12/19 13:12:31;;;;;;;6.80;2.92;;;6.90;92.80;;;;;;6156081;23;20022;-80
2021/12/19 13:15:07;;;;;;;10.10;3.17;;;7.00;92.90;;;;;;6156433;23;20080;-78
2021/12/19 13:17:45;;;;;;;15.10;3.58;;;7.00;92.60;;;;;;6155370;23;20033;-79
2021/12/19 13:20:17;;;;;;;12.70;2.60;;;7.00;92.70;;;;;;6154556;23;20470;-79
2021/12/19 13:22:56;;;;;;;9.98;2.67;;;7.00;92.90;;;;;;6154843;23;20017;-79
2021/12/19 13:25:38;;;;;;;15.82;4.00;;;7.00;92.80;;;;;;6156147;23;20462;-79
2021/12/19 13:28:10;;;;;;;7.15;2.63;;;7.00;92.80;;;;;;6156272;23;20026;-79
2021/12/19 13:30:42;;;;;;;11.63;3.20;;;6.90;92.70;;;;;;6156167;23;20097;-79
2021/12/19 13:33:21;;;;;;;8.85;2.60;;;7.00;92.80;;;;;;6126851;23;20026;-80
2021/12/19 13:35:53;;;;;;;15.38;2.92;;;6.90;92.90;;;;;;6149279;23;20077;-81
2021/12/19 13:42:12;;;;;;;13.77;3.13;;;7.00;93.00;;;;;;6074309;23;20701;-78
2021/12/19 13:44:42;;;;;;;8.68;2.53;;;6.90;93.00;;;;;;6128310;23;20097;-78
2021/12/19 13:47:29;;;;;;;9.27;2.53;;;7.00;93.20;;;;;;6157532;23;20025;-78
2021/12/19 13:49:56;;;;;;;8.82;2.60;;;7.00;93.10;;;;;;6158325;23;20030;-79
2021/12/19 13:52:23;;;;;;;7.35;2.65;;;7.00;93.10;;;;;;6157612;23;20036;-79
2021/12/19 13:55:16;;;;;;;10.68;2.67;;;7.00;93.10;;;;;;6156717;23;20198;-79
2021/12/19 13:58:04;;;;;;;8.60;2.50;;;7.00;93.20;;;;;;6130105;23;20781;-80
2021/12/19 14:00:53;;;;;;;7.75;2.30;;;7.00;93.00;;;;;;6131966;23;20053;-79
2021/12/19 14:03:40;;;;;;;10.70;2.28;;;7.00;93.10;;;;;;6157712;23;20030;-79
2021/12/19 14:06:07;;;;;;;14.35;2.55;;;7.00;93.20;;;;;;6155977;23;20025;-78
2021/12/19 14:08:35;;;;;;;6.97;2.28;;;7.00;93.20;;;;;;6154247;23;20690;-80
2021/12/19 14:11:16;;;;;;;7.82;2.75;;;6.90;93.20;;;;;;6153710;23;20022;-81
2021/12/19 14:14:08;;;;;;;8.02;2.83;;;6.90;93.30;;;;;;6153958;23;20406;-82
2021/12/19 14:16:55;;;;;;;5.57;2.38;;;6.90;93.40;;;;;;6156225;23;20053;-79
2021/12/19 14:19:34;;;;;;;10.35;2.42;;;6.80;93.60;;;;;;6152507;23;20077;-80
2021/12/19 14:22:09;;;;;;;5.93;2.33;;;6.80;93.50;;;;;;6128510;23;20022;-80
2021/12/19 14:24:56;;;;;;;5.30;2.40;;;6.80;93.60;;;;;;6128458;23;20073;-79
2021/12/19 14:27:27;;;;;;;10.25;2.42;;;6.80;93.40;;;;;;6154237;23;20054;-80